createdAt,value
2019-02-20T00:00:10.394Z,99.99
2019-02-20T00:01:19.831Z,99.99
2019-02-20T00:02:29.283Z,99.99
2019-02-20T00:03:39.226Z,99.99
2019-02-20T00:04:49.209Z,99.99
2019-02-20T00:05:59.154Z,99.99
2019-02-20T00:07:08.876Z,99.99
2019-02-20T00:08:18.861Z,99.99
2019-02-20T00:09:28.555Z,99.99
2019-02-20T00:10:38.263Z,99.99
2019-02-20T00:11:48.252Z,99.99
2019-02-20T00:12:57.953Z,99.99
2019-02-20T00:14:07.657Z,99.99
2019-02-20T00:15:17.120Z,99.99
2019-02-20T00:16:27.048Z,99.99
2019-02-20T00:17:37.005Z,99.99
2019-02-20T00:18:46.947Z,99.99
2019-02-20T00:19:56.642Z,99.99
2019-02-20T00:21:06.580Z,99.99
2019-02-20T00:22:16.328Z,99.99
2019-02-20T00:23:26.054Z,99.99
2019-02-20T00:24:35.746Z,99.99
2019-02-20T00:25:45.456Z,99.99
2019-02-20T00:26:55.413Z,99.99
2019-02-20T00:28:05.403Z,99.99
2019-02-20T00:29:15.376Z,99.99
2019-02-20T00:30:25.471Z,99.99
2019-02-20T00:31:34.724Z,99.99
2019-02-20T00:32:44.212Z,99.99
2019-02-20T00:33:53.911Z,99.99
2019-02-20T00:35:03.875Z,99.99
2019-02-20T00:36:13.585Z,99.99
2019-02-20T00:37:23.018Z,99.99
2019-02-20T00:38:32.962Z,99.99
2019-02-20T00:39:42.691Z,99.99
2019-02-20T00:40:52.432Z,99.99
2019-02-20T00:42:02.127Z,99.99
2019-02-20T00:43:11.814Z,99.99
2019-02-20T00:44:21.760Z,99.99
2019-02-20T00:45:31.693Z,99.99
2019-02-20T00:46:41.390Z,99.99
2019-02-20T00:47:51.119Z,99.99
2019-02-20T00:49:01.054Z,99.99
2019-02-20T00:50:11.010Z,99.99
2019-02-20T00:51:20.692Z,99.99
2019-02-20T00:52:30.136Z,99.99
2019-02-20T00:53:39.851Z,99.99
2019-02-20T00:54:49.838Z,99.99
2019-02-20T00:55:59.799Z,99.99
2019-02-20T00:57:09.766Z,99.99
2019-02-20T00:58:19.225Z,99.99
2019-02-20T00:59:28.913Z,99.99
2019-02-20T01:00:38.627Z,99.99
2019-02-20T01:01:48.346Z,99.99
2019-02-20T01:02:58.295Z,99.99
2019-02-20T01:04:08.003Z,99.99
2019-02-20T01:05:17.956Z,99.99
2019-02-20T01:06:27.899Z,99.99
2019-02-20T01:07:37.854Z,99.99
2019-02-20T01:08:47.572Z,99.99
2019-02-20T01:09:57.508Z,99.99
2019-02-20T01:11:07.472Z,99.99
2019-02-20T01:12:16.910Z,99.99
2019-02-20T01:13:26.844Z,99.99
2019-02-20T01:14:36.022Z,99.99
2019-02-20T01:15:45.968Z,99.99
2019-02-20T01:16:55.940Z,99.99
2019-02-20T01:18:05.668Z,99.99
2019-02-20T01:19:15.608Z,99.99
2019-02-20T01:20:25.549Z,99.99
2019-02-20T01:21:34.980Z,99.99
2019-02-20T01:22:44.682Z,99.99
2019-02-20T01:24:04.875Z,99.99
2019-02-20T01:25:14.830Z,99.99
2019-02-20T01:26:24.787Z,99.99
2019-02-20T01:27:34.759Z,99.99
2019-02-20T01:28:44.721Z,99.99
2019-02-20T01:29:54.681Z,99.99
2019-02-20T01:31:04.414Z,99.99
2019-02-20T01:32:14.361Z,99.99
2019-02-20T01:33:24.343Z,99.99
2019-02-20T01:34:34.278Z,99.99
2019-02-20T01:35:43.979Z,99.99
2019-02-20T01:36:53.735Z,99.99
2019-02-20T01:38:03.429Z,99.99
2019-02-20T01:39:13.130Z,99.99
2019-02-20T01:40:23.079Z,99.99
2019-02-20T01:41:33.029Z,99.99
2019-02-20T01:42:42.752Z,99.99
2019-02-20T01:43:52.462Z,99.99
2019-02-20T01:45:02.400Z,99.99
2019-02-20T01:46:12.086Z,99.99
2019-02-20T01:47:21.783Z,99.99
2019-02-20T01:48:31.475Z,99.99
2019-02-20T01:49:41.454Z,99.99
2019-02-20T01:50:50.929Z,99.99
2019-02-20T01:52:00.914Z,99.99
2019-02-20T01:53:12.806Z,99.99
2019-02-20T01:54:22.508Z,99.99
2019-02-20T01:55:32.458Z,99.99
2019-02-20T01:56:42.400Z,99.99
2019-02-20T01:57:52.098Z,99.99
2019-02-20T01:59:02.031Z,99.99
2019-02-20T02:00:12.009Z,99.99
2019-02-20T02:01:21.955Z,99.99
2019-02-20T02:02:31.918Z,99.99
2019-02-20T02:03:41.874Z,99.99
2019-02-20T02:04:51.855Z,99.99
2019-02-20T02:06:01.930Z,99.99
2019-02-20T02:07:11.866Z,99.99
2019-02-20T02:08:21.807Z,99.99
2019-02-20T02:09:31.560Z,99.99
2019-02-20T02:10:41.513Z,99.99
2019-02-20T02:11:51.461Z,99.99
2019-02-20T02:13:01.415Z,99.99
2019-02-20T02:14:10.856Z,99.99
2019-02-20T02:15:23.181Z,99.99
2019-02-20T02:16:32.627Z,99.99
2019-02-20T02:17:42.061Z,99.99
2019-02-20T02:18:51.767Z,99.99
2019-02-20T02:20:01.724Z,99.99
2019-02-20T02:21:11.418Z,99.99
2019-02-20T02:22:21.107Z,99.99
2019-02-20T02:23:31.060Z,99.99
2019-02-20T02:24:40.529Z,99.99
2019-02-20T02:25:50.249Z,99.99
2019-02-20T02:26:59.744Z,99.99
2019-02-20T02:28:09.433Z,99.99
2019-02-20T02:29:19.382Z,99.99
2019-02-20T02:30:29.067Z,99.99
2019-02-20T02:31:39.047Z,99.99
2019-02-20T02:32:48.770Z,99.99
2019-02-20T02:34:00.144Z,99.99
2019-02-20T02:35:09.856Z,99.99
2019-02-20T02:36:19.805Z,99.99
2019-02-20T02:37:29.793Z,99.99
2019-02-20T02:38:39.744Z,99.99
2019-02-20T02:39:49.699Z,99.99
2019-02-20T02:40:59.395Z,99.99
2019-02-20T02:42:09.394Z,99.99
2019-02-20T02:43:19.343Z,99.99
2019-02-20T02:44:29.043Z,99.99
2019-02-20T02:45:38.753Z,99.99
2019-02-20T02:46:48.687Z,99.99
2019-02-20T02:47:58.631Z,99.99
2019-02-20T02:49:08.372Z,99.99
2019-02-20T02:50:18.357Z,99.99
2019-02-20T02:51:28.301Z,99.99
2019-02-20T02:52:37.740Z,99.99
2019-02-20T02:53:47.453Z,99.99
2019-02-20T02:54:57.137Z,99.99
2019-02-20T02:56:07.128Z,99.99
2019-02-20T02:57:16.847Z,99.99
2019-02-20T02:58:25.822Z,99.99
2019-02-20T02:59:35.271Z,99.99
2019-02-20T03:00:45.269Z,99.99
2019-02-20T03:01:56.929Z,99.99
2019-02-20T03:03:06.372Z,99.99
2019-02-20T03:04:16.317Z,99.99
2019-02-20T03:05:26.279Z,99.99
2019-02-20T03:06:36.244Z,99.99
2019-02-20T03:07:46.257Z,99.99
2019-02-20T03:08:56.191Z,99.99
2019-02-20T03:10:05.659Z,99.99
2019-02-20T03:11:15.612Z,99.99
2019-02-20T03:12:25.069Z,99.99
2019-02-20T03:13:35.007Z,99.99
2019-02-20T03:14:44.709Z,99.99
2019-02-20T03:15:54.141Z,99.99
2019-02-20T03:17:03.868Z,99.99
2019-02-20T03:18:13.346Z,99.99
2019-02-20T03:19:23.056Z,99.99
2019-02-20T03:20:33.013Z,99.99
2019-02-20T03:21:42.957Z,99.99
2019-02-20T03:22:52.429Z,99.99
2019-02-20T03:24:02.403Z,99.99
2019-02-20T03:25:12.347Z,99.99
2019-02-20T03:26:21.797Z,99.99
2019-02-20T03:27:31.749Z,99.99
2019-02-20T03:28:42.654Z,99.99
2019-02-20T03:29:52.351Z,99.99
2019-02-20T03:31:02.313Z,99.99
2019-02-20T03:32:12.060Z,99.99
2019-02-20T03:33:22.075Z,99.99
2019-02-20T03:34:31.323Z,99.99
2019-02-20T03:35:41.261Z,99.99
2019-02-20T03:36:50.966Z,99.99
2019-02-20T03:38:00.405Z,99.99
2019-02-20T03:39:10.373Z,99.99
2019-02-20T03:40:20.407Z,99.99
2019-02-20T03:41:30.367Z,99.99
2019-02-20T03:42:40.342Z,99.99
2019-02-20T03:43:50.361Z,99.99
2019-02-20T03:45:00.473Z,99.99
2019-02-20T03:46:10.448Z,99.99
2019-02-20T03:47:22.386Z,99.99
2019-02-20T03:48:32.108Z,99.99
2019-02-20T03:49:41.539Z,99.99
2019-02-20T03:50:51.249Z,99.99
2019-02-20T03:52:01.199Z,99.99
2019-02-20T03:53:10.896Z,99.99
2019-02-20T03:54:20.718Z,99.99
2019-02-20T03:55:30.403Z,99.99
2019-02-20T03:56:40.414Z,99.99
2019-02-20T03:57:50.124Z,99.99
2019-02-20T03:59:00.058Z,99.99
2019-02-20T04:00:10.045Z,99.99
2019-02-20T04:01:20.052Z,99.99
2019-02-20T04:02:30.001Z,99.99
2019-02-20T04:03:39.953Z,99.99
2019-02-20T04:04:49.891Z,99.99
2019-02-20T04:05:59.901Z,99.99
2019-02-20T04:07:09.841Z,99.99
2019-02-20T04:08:19.788Z,99.99
2019-02-20T04:09:29.732Z,99.99
2019-02-20T04:10:39.699Z,99.99
2019-02-20T04:11:49.662Z,99.99
2019-02-20T04:12:59.371Z,99.99
2019-02-20T04:14:09.084Z,99.99
2019-02-20T04:15:19.043Z,99.99
2019-02-20T04:16:28.979Z,99.99
2019-02-20T04:17:38.938Z,99.99
2019-02-20T04:18:48.881Z,99.99
2019-02-20T04:19:58.571Z,99.99
2019-02-20T04:21:08.533Z,99.99
2019-02-20T04:22:18.013Z,99.99
2019-02-20T04:23:27.977Z,99.99
2019-02-20T04:24:37.950Z,99.99
2019-02-20T04:25:47.659Z,99.99
2019-02-20T04:26:57.124Z,99.99
2019-02-20T04:28:07.134Z,99.99
2019-02-20T04:29:16.451Z,99.99
2019-02-20T04:30:26.417Z,99.99
2019-02-20T04:31:36.134Z,99.99
2019-02-20T04:32:45.627Z,99.99
2019-02-20T04:33:55.339Z,99.99
2019-02-20T04:35:05.295Z,99.99
2019-02-20T04:36:14.753Z,99.99
2019-02-20T04:37:24.877Z,99.99
2019-02-20T04:38:34.320Z,99.99
2019-02-20T04:39:43.765Z,99.99
2019-02-20T04:40:53.224Z,99.99
2019-02-20T04:42:02.926Z,99.99
2019-02-20T04:43:12.879Z,99.99
2019-02-20T04:44:22.846Z,99.99
2019-02-20T04:45:32.852Z,99.99
2019-02-20T04:46:42.325Z,99.99
2019-02-20T04:47:52.279Z,99.99
2019-02-20T04:49:01.972Z,99.99
2019-02-20T04:50:11.989Z,99.99
2019-02-20T04:51:21.970Z,99.99
2019-02-20T04:52:31.664Z,99.99
2019-02-20T04:53:41.110Z,99.99
2019-02-20T04:54:51.054Z,99.99
2019-02-20T04:56:01.014Z,99.99
2019-02-20T04:57:10.982Z,99.99
2019-02-20T04:58:20.705Z,99.99
2019-02-20T04:59:30.760Z,99.99
2019-02-20T05:00:40.724Z,99.99
2019-02-20T05:01:50.683Z,99.99
2019-02-20T05:03:00.629Z,99.99
2019-02-20T05:04:10.664Z,99.99
2019-02-20T05:05:20.606Z,99.99
2019-02-20T05:06:30.547Z,99.99
2019-02-20T05:07:40.495Z,99.99
2019-02-20T05:08:50.447Z,99.99
2019-02-20T05:10:00.410Z,99.99
2019-02-20T05:11:10.117Z,99.99
2019-02-20T05:12:19.861Z,99.99
2019-02-20T05:13:29.587Z,99.99
2019-02-20T05:14:39.069Z,99.99
2019-02-20T05:15:48.687Z,99.99
2019-02-20T05:16:58.149Z,99.99
2019-02-20T05:18:07.859Z,99.99
2019-02-20T05:19:17.568Z,99.99
2019-02-20T05:20:27.269Z,99.99
2019-02-20T05:21:37.291Z,99.99
2019-02-20T05:22:46.779Z,99.99
2019-02-20T05:23:56.780Z,99.99
2019-02-20T05:25:06.496Z,99.99
2019-02-20T05:26:15.945Z,99.99
2019-02-20T05:27:25.631Z,99.99
2019-02-20T05:28:35.334Z,99.99
2019-02-20T05:29:45.307Z,99.99
2019-02-20T05:30:55.000Z,99.77
2019-02-20T05:32:04.726Z,99.87
2019-02-20T05:33:14.688Z,99.68
2019-02-20T05:34:24.411Z,99.68
2019-02-20T05:35:34.387Z,99.87
2019-02-20T05:36:43.856Z,99.87
2019-02-20T05:37:53.804Z,99.68
2019-02-20T05:39:03.780Z,99.97
2019-02-20T05:40:13.728Z,99.87
2019-02-20T05:41:23.432Z,99.97
2019-02-20T05:42:33.156Z,99.99
2019-02-20T05:43:43.149Z,99.68
2019-02-20T05:44:53.119Z,99.11
2019-02-20T05:46:02.824Z,99.77
2019-02-20T05:47:12.781Z,99.68
2019-02-20T05:48:22.821Z,98.73
2019-02-20T05:49:32.777Z,99.4
2019-02-20T05:50:42.748Z,99.02
2019-02-20T05:51:52.792Z,98.64
2019-02-20T05:53:02.250Z,99.3
2019-02-20T05:54:11.997Z,99.02
2019-02-20T05:55:21.959Z,99.3
2019-02-20T05:56:31.902Z,99.4
2019-02-20T05:57:41.627Z,98.64
2019-02-20T05:58:51.589Z,98.64
2019-02-20T06:00:01.732Z,98.92
2019-02-20T06:01:11.714Z,99.3
2019-02-20T06:02:21.454Z,98.83
2019-02-20T06:03:31.175Z,98.45
2019-02-20T06:04:40.641Z,98.83
2019-02-20T06:05:50.079Z,99.11
2019-02-20T06:07:00.064Z,99.11
2019-02-20T06:08:10.056Z,98.54
2019-02-20T06:09:20.067Z,98.35
2019-02-20T06:10:29.807Z,99.11
2019-02-20T06:11:39.816Z,98.45
2019-02-20T06:12:49.490Z,98.54
2019-02-20T06:13:59.491Z,98.54
2019-02-20T06:15:09.506Z,98.54
2019-02-20T06:16:19.454Z,98.35
2019-02-20T06:17:29.187Z,98.64
2019-02-20T06:18:38.646Z,99.21
2019-02-20T06:19:48.375Z,99.21
2019-02-20T06:20:58.095Z,98.64
2019-02-20T06:22:07.568Z,98.07
2019-02-20T06:23:17.036Z,98.64
2019-02-20T06:24:27.002Z,98.64
2019-02-20T06:25:46.714Z,98.54
2019-02-20T06:26:56.699Z,98.26
2019-02-20T06:28:06.700Z,98.26
2019-02-20T06:29:16.410Z,98.83
2019-02-20T06:30:26.364Z,97.6
2019-02-20T06:31:36.104Z,97.69
2019-02-20T06:32:46.059Z,98.16
2019-02-20T06:33:56.002Z,98.16
2019-02-20T06:35:05.980Z,98.54
2019-02-20T06:36:15.950Z,97.69
2019-02-20T06:37:25.650Z,98.45
2019-02-20T06:38:35.398Z,97.69
2019-02-20T06:39:45.408Z,98.54
2019-02-20T06:40:55.117Z,97.69
2019-02-20T06:42:05.096Z,98.35
2019-02-20T06:43:15.074Z,98.26
2019-02-20T06:44:24.777Z,97.5
2019-02-20T06:45:34.504Z,98.26
2019-02-20T06:46:44.478Z,98.07
2019-02-20T06:47:54.172Z,97.5
2019-02-20T06:49:03.867Z,97.6
2019-02-20T06:50:13.536Z,97.12
2019-02-20T06:51:23.446Z,97.12
2019-02-20T06:52:33.162Z,97.12
2019-02-20T06:53:42.938Z,97.78
2019-02-20T06:54:56.602Z,96.93
2019-02-20T06:56:06.547Z,97.6
2019-02-20T06:57:16.001Z,97.36
2019-02-20T06:58:25.957Z,97.64
2019-02-20T06:59:35.938Z,97.78
2019-02-20T07:00:45.634Z,98.07
2019-02-20T07:01:55.588Z,97.88
2019-02-20T07:03:05.559Z,97.55
2019-02-20T07:04:15.260Z,97.64
2019-02-20T07:05:24.955Z,96.98
2019-02-20T07:06:34.911Z,97.55
2019-02-20T07:07:44.623Z,97.07
2019-02-20T07:08:54.585Z,96.88
2019-02-20T07:10:04.557Z,97.07
2019-02-20T07:11:14.494Z,96.88
2019-02-20T07:12:24.210Z,97.45
2019-02-20T07:13:34.176Z,96.69
2019-02-20T07:14:44.119Z,97.36
2019-02-20T07:15:54.114Z,97.64
2019-02-20T07:17:04.100Z,96.88
2019-02-20T07:18:13.800Z,96.69
2019-02-20T07:19:23.748Z,96.5
2019-02-20T07:20:33.722Z,96.69
2019-02-20T07:21:42.936Z,97.27
2019-02-20T07:22:52.651Z,96.88
2019-02-20T07:24:02.367Z,96.69
2019-02-20T07:25:12.083Z,96.69
2019-02-20T07:26:21.771Z,96.69
2019-02-20T07:27:31.758Z,96.6
2019-02-20T07:28:41.736Z,96.41
2019-02-20T07:29:51.701Z,96.41
2019-02-20T07:31:01.164Z,96.22
2019-02-20T07:32:11.252Z,97.17
2019-02-20T07:33:21.205Z,97.27
2019-02-20T07:34:31.208Z,97.07
2019-02-20T07:35:40.917Z,96.79
2019-02-20T07:36:50.646Z,96.03
2019-02-20T07:38:00.620Z,96.12
2019-02-20T07:39:10.309Z,96.03
2019-02-20T07:40:20.300Z,96.03
2019-02-20T07:41:29.989Z,96.6
2019-02-20T07:42:39.690Z,95.94
2019-02-20T07:43:49.450Z,96.22
2019-02-20T07:44:59.406Z,96.22
2019-02-20T07:46:09.357Z,95.75
2019-02-20T07:47:19.317Z,95.94
2019-02-20T07:48:29.094Z,96.12
2019-02-20T07:49:38.843Z,96.5
2019-02-20T07:50:48.584Z,95.94
2019-02-20T07:51:58.271Z,96.03
2019-02-20T07:53:07.974Z,96.22
2019-02-20T07:54:17.940Z,95.94
2019-02-20T07:55:27.412Z,95.55
2019-02-20T07:56:37.412Z,95.65
2019-02-20T07:57:47.390Z,96.22
2019-02-20T07:58:57.377Z,95.65
2019-02-20T08:00:06.795Z,96.03
2019-02-20T08:01:16.256Z,95.94
2019-02-20T08:02:26.223Z,96.22
2019-02-20T08:03:36.185Z,95.08
2019-02-20T08:04:45.626Z,94.89
2019-02-20T08:05:55.332Z,94.32
2019-02-20T08:07:05.312Z,94.51
2019-02-20T08:08:15.344Z,94.98
2019-02-20T08:09:25.364Z,94.79
2019-02-20T08:10:35.114Z,94.6
2019-02-20T08:11:45.110Z,94.6
2019-02-20T08:12:55.140Z,94.23
2019-02-20T08:14:05.151Z,94.7
2019-02-20T08:15:14.869Z,94.98
2019-02-20T08:16:24.863Z,94.7
2019-02-20T08:17:34.851Z,94.89
2019-02-20T08:18:44.566Z,95.36
2019-02-20T08:19:54.307Z,95.17
2019-02-20T08:21:04.297Z,94.89
2019-02-20T08:22:14.485Z,94.7
2019-02-20T08:23:24.444Z,94.6
2019-02-20T08:24:34.406Z,94.98
2019-02-20T08:25:43.716Z,94.6
2019-02-20T08:26:53.933Z,95.08
2019-02-20T08:28:03.933Z,94.13
2019-02-20T08:29:13.922Z,94.51
2019-02-20T08:30:23.908Z,94.98
2019-02-20T08:31:33.883Z,94.79
2019-02-20T08:32:43.845Z,94.6
2019-02-20T08:33:53.839Z,94.6
2019-02-20T08:35:03.801Z,93.46
2019-02-20T08:36:13.795Z,92.61
2019-02-20T08:37:23.531Z,91.94
2019-02-20T08:38:33.487Z,92.32
2019-02-20T08:39:43.524Z,91.52
2019-02-20T08:40:52.937Z,92.27
2019-02-20T08:42:02.208Z,92.56
2019-02-20T08:43:12.210Z,92.56
2019-02-20T08:44:21.674Z,91.33
2019-02-20T08:45:31.382Z,90.56
2019-02-20T08:46:41.087Z,89.9
2019-02-20T08:47:51.047Z,90.52
2019-02-20T08:49:00.745Z,89.47
2019-02-20T08:50:10.208Z,88.13
2019-02-20T08:51:21.611Z,87.71
2019-02-20T08:52:31.569Z,87.23
2019-02-20T08:53:41.545Z,87.23
2019-02-20T08:54:51.508Z,87.71
2019-02-20T08:56:00.981Z,87.71
2019-02-20T08:57:10.982Z,87.52
2019-02-20T08:58:20.739Z,87.52
2019-02-20T08:59:30.713Z,88.18
2019-02-20T09:00:40.432Z,87.61
2019-02-20T09:01:50.422Z,87.95
2019-02-20T09:03:00.379Z,88.71
2019-02-20T09:04:10.346Z,88.04
2019-02-20T09:05:20.287Z,88.71
2019-02-20T09:06:29.755Z,88.8
2019-02-20T09:07:39.443Z,89.37
2019-02-20T09:08:49.412Z,89.37
2019-02-20T09:09:58.881Z,89.37
2019-02-20T09:11:08.623Z,89.75
2019-02-20T09:12:18.612Z,89.94
2019-02-20T09:13:28.578Z,89.85
2019-02-20T09:14:38.309Z,89.37
2019-02-20T09:15:48.286Z,89.66
2019-02-20T09:16:57.738Z,89.18
2019-02-20T09:18:07.201Z,88.71
2019-02-20T09:19:16.914Z,88.71
2019-02-20T09:20:26.891Z,88.61
2019-02-20T09:21:36.845Z,88.56
2019-02-20T09:22:46.847Z,88.46
2019-02-20T09:23:56.573Z,88.18
2019-02-20T09:25:06.307Z,87.95
2019-02-20T09:26:25.064Z,88.52
2019-02-20T09:27:35.073Z,89.47
2019-02-20T09:28:44.773Z,88.8
2019-02-20T09:29:54.756Z,89.28
2019-02-20T09:31:04.758Z,89
2019-02-20T09:32:14.227Z,89.66
2019-02-20T09:33:23.445Z,89.66
2019-02-20T09:34:33.178Z,89.18
2019-02-20T09:35:42.907Z,90.04
2019-02-20T09:36:52.881Z,89.94
2019-02-20T09:38:02.578Z,90.61
2019-02-20T09:39:13.491Z,90.23
2019-02-20T09:40:23.461Z,89.66
2019-02-20T09:41:32.911Z,90.04
2019-02-20T09:42:42.990Z,90.61
2019-02-20T09:43:52.959Z,89.75
2019-02-20T09:45:02.917Z,90.23
2019-02-20T09:46:12.904Z,90.14
2019-02-20T09:47:22.878Z,90.04
2019-02-20T09:48:32.585Z,90.23
2019-02-20T09:49:42.295Z,90.04
2019-02-20T09:50:52.012Z,89.94
2019-02-20T09:52:01.475Z,90.04
2019-02-20T09:53:11.446Z,90.04
2019-02-20T09:54:21.451Z,89.75
2019-02-20T09:55:31.364Z,89.94
2019-02-20T09:56:41.325Z,89.85
2019-02-20T09:57:51.070Z,90.14
2019-02-20T09:59:01.016Z,89.75
2019-02-20T10:00:10.981Z,89.85
2019-02-20T10:01:20.974Z,89.94
2019-02-20T10:02:30.726Z,89.89
2019-02-20T10:03:40.432Z,88.71
2019-02-20T10:04:50.389Z,89.32
2019-02-20T10:06:00.131Z,88.23
2019-02-20T10:07:09.838Z,88.09
2019-02-20T10:08:19.569Z,88.56
2019-02-20T10:09:29.525Z,88.18
2019-02-20T10:10:39.597Z,88.94
2019-02-20T10:11:49.861Z,87.95
2019-02-20T10:12:59.819Z,88.09
2019-02-20T10:14:09.791Z,88.71
2019-02-20T10:15:19.528Z,87.9
2019-02-20T10:16:29.482Z,88.75
2019-02-20T10:17:39.427Z,88.18
2019-02-20T10:18:49.138Z,88.66
2019-02-20T10:19:58.846Z,88.37
2019-02-20T10:21:08.804Z,88.37
2019-02-20T10:22:20.127Z,88.28
2019-02-20T10:23:29.863Z,87.99
2019-02-20T10:24:39.893Z,87.99
2019-02-20T10:25:49.584Z,87.04
2019-02-20T10:27:08.389Z,87.04
2019-02-20T10:28:18.410Z,87.42
2019-02-20T10:29:28.115Z,86.85
2019-02-20T10:30:37.586Z,87.23
2019-02-20T10:31:49.130Z,87.13
2019-02-20T10:32:59.158Z,87.13
2019-02-20T10:34:11.163Z,86.22
2019-02-20T10:35:21.205Z,85.85
2019-02-20T10:36:31.187Z,86.32
2019-02-20T10:37:40.906Z,86.8
2019-02-20T10:38:50.677Z,86.22
2019-02-20T10:40:00.420Z,85.47
2019-02-20T10:41:09.904Z,84.61
2019-02-20T10:42:19.679Z,85.08
2019-02-20T10:43:29.695Z,84.42
2019-02-20T10:44:39.662Z,84.99
2019-02-20T10:45:49.635Z,84.52
2019-02-20T10:46:59.599Z,84.61
2019-02-20T10:48:09.318Z,85.08
2019-02-20T10:49:19.278Z,85.08
2019-02-20T10:50:29.229Z,84.99
2019-02-20T10:51:39.222Z,85.56
2019-02-20T10:52:49.188Z,85.66
2019-02-20T10:53:58.992Z,84.52
2019-02-20T10:55:08.700Z,84.99
2019-02-20T10:56:18.391Z,85.28
2019-02-20T10:57:28.101Z,84.89
2019-02-20T10:58:38.061Z,84.8
2019-02-20T10:59:48.036Z,83.65
2019-02-20T11:00:58.008Z,83.28
2019-02-20T11:02:08.010Z,83.98
2019-02-20T11:03:17.954Z,83.51
2019-02-20T11:04:27.909Z,83.51
2019-02-20T11:05:38.509Z,83.56
2019-02-20T11:06:48.219Z,83.94
2019-02-20T11:07:57.945Z,84.33
2019-02-20T11:09:07.640Z,83.18
2019-02-20T11:10:17.097Z,83.22
2019-02-20T11:11:27.155Z,82.84
2019-02-20T11:12:37.122Z,83.03
2019-02-20T11:13:47.080Z,82.65
2019-02-20T11:14:56.545Z,83.03
2019-02-20T11:16:06.515Z,82.93
2019-02-20T11:17:16.243Z,83.22
2019-02-20T11:18:26.199Z,83.03
2019-02-20T11:19:35.904Z,82.93
2019-02-20T11:20:50.977Z,82.46
2019-02-20T11:22:00.961Z,82.46
2019-02-20T11:23:10.934Z,82.27
2019-02-20T11:24:20.681Z,82.46
2019-02-20T11:25:31.276Z,82.27
2019-02-20T11:26:55.103Z,82.56
2019-02-20T11:28:05.187Z,82.93
2019-02-20T11:29:15.148Z,82.56
2019-02-20T11:30:25.110Z,82.56
2019-02-20T11:31:35.058Z,82.46
2019-02-20T11:32:45.019Z,82.56
2019-02-20T11:33:55.289Z,83.03
2019-02-20T11:35:07.088Z,83.32
2019-02-20T11:36:17.051Z,83.18
2019-02-20T11:37:27.094Z,83.13
2019-02-20T11:38:37.050Z,82.65
2019-02-20T11:39:46.986Z,82.75
2019-02-20T11:40:56.952Z,82.65
2019-02-20T11:42:06.662Z,82.75
2019-02-20T11:43:16.650Z,82.75
2019-02-20T11:44:26.638Z,82.56
2019-02-20T11:45:36.589Z,82.56
2019-02-20T11:46:47.118Z,82.08
2019-02-20T11:47:56.820Z,81.7
2019-02-20T11:49:06.787Z,81.89
2019-02-20T11:50:16.502Z,81.89
2019-02-20T11:51:26.450Z,81.79
2019-02-20T11:52:40.985Z,81.7
2019-02-20T11:53:50.964Z,81.89
2019-02-20T11:55:00.421Z,81.89
2019-02-20T11:56:12.255Z,81.89
2019-02-20T11:57:29.471Z,82.27
2019-02-20T11:58:39.422Z,81.6
2019-02-20T11:59:49.394Z,81.79
2019-02-20T12:00:59.101Z,81.7
2019-02-20T12:02:09.056Z,81.89
2019-02-20T12:03:18.793Z,81.98
2019-02-20T12:04:28.487Z,81.23
2019-02-20T12:05:38.469Z,81.89
2019-02-20T12:06:48.604Z,81.32
2019-02-20T12:07:58.564Z,81.32
2019-02-20T12:09:08.491Z,81.7
2019-02-20T12:10:18.213Z,81.89
2019-02-20T12:11:27.926Z,82.18
2019-02-20T12:12:37.834Z,82.27
2019-02-20T12:13:47.782Z,82.37
2019-02-20T12:14:57.752Z,82.27
2019-02-20T12:16:07.846Z,82.56
2019-02-20T12:17:17.581Z,82.08
2019-02-20T12:18:27.532Z,81.89
2019-02-20T12:19:39.235Z,81.6
2019-02-20T12:20:48.861Z,81.89
2019-02-20T12:21:59.078Z,81.23
2019-02-20T12:23:09.122Z,81.23
2019-02-20T12:24:19.235Z,81.03
2019-02-20T12:25:29.198Z,81.03
2019-02-20T12:26:39.166Z,80.55
2019-02-20T12:27:50.343Z,80.31
2019-02-20T12:29:00.082Z,80.69
2019-02-20T12:30:09.773Z,80.6
2019-02-20T12:31:19.731Z,80.27
2019-02-20T12:32:30.884Z,80.27
2019-02-20T12:33:40.941Z,79.55
2019-02-20T12:34:50.661Z,78.98
2019-02-20T12:36:00.366Z,79.46
2019-02-20T12:37:10.311Z,78.5
2019-02-20T12:38:19.987Z,78.59
2019-02-20T12:39:30.261Z,78.69
2019-02-20T12:40:40.191Z,79.17
2019-02-20T12:41:49.921Z,79.55
2019-02-20T12:42:59.622Z,80.02
2019-02-20T12:44:09.581Z,80.5
2019-02-20T12:45:19.550Z,80.6
2019-02-20T12:46:29.692Z,80.46
2019-02-20T12:47:39.404Z,80.94
2019-02-20T12:48:49.436Z,81.32
2019-02-20T12:49:59.196Z,81.03
2019-02-20T12:51:09.156Z,80.94
2019-02-20T12:52:19.136Z,80.84
2019-02-20T12:53:29.453Z,80.36
2019-02-20T12:54:39.420Z,79.46
2019-02-20T12:55:49.468Z,79.55
2019-02-20T12:56:59.429Z,79.46
2019-02-20T12:58:09.431Z,78.5
2019-02-20T12:59:19.399Z,77.97
2019-02-20T13:00:28.856Z,77.78
2019-02-20T13:01:38.559Z,76.64
2019-02-20T13:02:48.282Z,76.35
2019-02-20T13:03:58.275Z,76.06
2019-02-20T13:05:07.978Z,75.68
2019-02-20T13:06:17.973Z,75.68
2019-02-20T13:07:27.693Z,76.06
2019-02-20T13:08:38.228Z,76.12
2019-02-20T13:09:50.031Z,76.25
2019-02-20T13:10:59.906Z,76.06
2019-02-20T13:12:09.899Z,76.03
2019-02-20T13:13:19.607Z,76.69
2019-02-20T13:14:29.573Z,76.69
2019-02-20T13:15:39.300Z,76.79
2019-02-20T13:16:49.251Z,77.42
2019-02-20T13:17:58.726Z,77.51
2019-02-20T13:19:08.734Z,77.51
2019-02-20T13:20:18.732Z,77.61
2019-02-20T13:21:29.013Z,77.7
2019-02-20T13:22:38.736Z,77.13
2019-02-20T13:23:48.263Z,77.13
2019-02-20T13:24:57.984Z,76.94
2019-02-20T13:26:09.375Z,76.69
2019-02-20T13:27:25.119Z,77.17
2019-02-20T13:28:34.855Z,76.75
2019-02-20T13:29:44.560Z,76.08
2019-02-20T13:30:54.278Z,76.56
2019-02-20T13:32:03.729Z,76.65
2019-02-20T13:33:13.461Z,77.22
2019-02-20T13:34:23.410Z,77.42
2019-02-20T13:35:33.377Z,77.51
2019-02-20T13:36:43.326Z,77.22
2019-02-20T13:37:53.070Z,77.45
2019-02-20T13:39:03.034Z,77.74
2019-02-20T13:40:13.050Z,77.26
2019-02-20T13:41:23.070Z,76.98
2019-02-20T13:42:34.528Z,76.84
2019-02-20T13:43:44.549Z,77.22
2019-02-20T13:44:56.310Z,77.32
2019-02-20T13:46:06.090Z,77.32
2019-02-20T13:47:16.120Z,77.7
2019-02-20T13:48:25.909Z,77.61
2019-02-20T13:49:37.852Z,77.7
2019-02-20T13:50:47.643Z,76.94
2019-02-20T13:51:57.418Z,76.56
2019-02-20T13:53:07.457Z,76.94
2019-02-20T13:54:19.573Z,76.65
2019-02-20T13:55:36.951Z,76.84
2019-02-20T13:56:46.750Z,76.46
2019-02-20T13:58:04.657Z,76.27
2019-02-20T13:59:14.614Z,75.16
2019-02-20T14:00:24.725Z,75.07
2019-02-20T14:01:34.478Z,75.16
2019-02-20T14:02:44.750Z,74.98
2019-02-20T14:03:55.773Z,75.45
2019-02-20T14:05:06.354Z,75.64
2019-02-20T14:06:17.567Z,75.93
2019-02-20T14:07:28.262Z,76.31
2019-02-20T14:08:39.242Z,76.12
2019-02-20T14:09:49.945Z,75.45
2019-02-20T14:11:00.523Z,75.36
2019-02-20T14:12:11.168Z,75.07
2019-02-20T14:13:21.603Z,74.4
2019-02-20T14:14:31.422Z,73.68
2019-02-20T14:15:41.328Z,73.49
2019-02-20T14:16:53.279Z,74.25
2019-02-20T14:18:03.042Z,73.96
2019-02-20T14:19:13.074Z,73.49
2019-02-20T14:20:23.074Z,73.21
2019-02-20T14:21:32.837Z,73.01
2019-02-20T14:22:42.910Z,73.11
2019-02-20T14:23:53.375Z,73.49
2019-02-20T14:25:05.174Z,73.3
2019-02-20T14:26:14.965Z,73.96
2019-02-20T14:27:24.721Z,74.25
2019-02-20T14:28:34.477Z,74.35
2019-02-20T14:29:44.536Z,74.4
2019-02-20T14:30:54.551Z,74.73
2019-02-20T14:32:04.322Z,74.63
2019-02-20T14:33:14.344Z,74.12
2019-02-20T14:34:24.094Z,74.69
2019-02-20T14:35:34.118Z,75.07
2019-02-20T14:36:43.944Z,75.16
2019-02-20T14:37:53.729Z,74.88
2019-02-20T14:39:03.510Z,75.16
2019-02-20T14:40:13.726Z,75.07
2019-02-20T14:41:23.891Z,75.55
2019-02-20T14:42:33.890Z,75.64
2019-02-20T14:43:44.035Z,76.31
2019-02-20T14:44:54.070Z,76.21
2019-02-20T14:46:05.571Z,76.46
2019-02-20T14:47:15.082Z,75.99
2019-02-20T14:48:24.858Z,76.08
2019-02-20T14:49:34.627Z,76.27
2019-02-20T14:50:44.627Z,76.65
2019-02-20T14:51:54.653Z,76.75
2019-02-20T14:53:04.423Z,76.75
2019-02-20T14:54:14.502Z,77.03
2019-02-20T14:55:24.535Z,76.84
2019-02-20T14:56:34.301Z,76.75
2019-02-20T14:57:43.821Z,76.65
2019-02-20T14:58:54.188Z,77.22
2019-02-20T15:00:04.223Z,76.65
2019-02-20T15:01:15.579Z,76.94
2019-02-20T15:02:25.661Z,76.75
2019-02-20T15:03:37.677Z,77.13